sensor_id;sensor_type;location;lat;lon;timestamp;pressure;altitude;pressure_sealevel;temperature;humidity
41712;BME280;27399;51.516;13.670;2022-10-16T00:01:32;100211.75;;;17.58;87.27
41712;BME280;27399;51.516;13.670;2022-10-16T00:03:59;100212.00;;;17.74;87.12
41712;BME280;27399;51.516;13.670;2022-10-16T00:06:26;100215.41;;;17.79;86.84
41712;BME280;27399;51.516;13.670;2022-10-16T00:08:53;100213.28;;;17.65;87.51
41712;BME280;27399;51.516;13.670;2022-10-16T00:11:27;100220.16;;;17.72;86.96
41712;BME280;27399;51.516;13.670;2022-10-16T00:13:59;100212.16;;;17.71;87.34
41712;BME280;27399;51.516;13.670;2022-10-16T00:16:26;100222.69;;;17.55;88.41
41712;BME280;27399;51.516;13.670;2022-10-16T00:18:52;100223.44;;;17.58;88.21
41712;BME280;27399;51.516;13.670;2022-10-16T00:21:20;100224.19;;;17.62;88.09
41712;BME280;27399;51.516;13.670;2022-10-16T00:23:46;100219.66;;;17.40;88.98
41712;BME280;27399;51.516;13.670;2022-10-16T00:26:16;100214.75;;;17.28;89.00
41712;BME280;27399;51.516;13.670;2022-10-16T00:28:42;100227.41;;;17.26;89.35
41712;BME280;27399;51.516;13.670;2022-10-16T00:31:10;100228.53;;;17.20;89.50
41712;BME280;27399;51.516;13.670;2022-10-16T00:33:37;100230.59;;;17.13;90.03
41712;BME280;27399;51.516;13.670;2022-10-16T00:36:04;100225.34;;;16.85;91.45
41712;BME280;27399;51.516;13.670;2022-10-16T00:38:30;100227.16;;;16.84;91.45
41712;BME280;27399;51.516;13.670;2022-10-16T00:40:56;100230.09;;;16.78;91.84
41712;BME280;27399;51.516;13.670;2022-10-16T00:43:41;100232.69;;;16.81;91.47
41712;BME280;27399;51.516;13.670;2022-10-16T00:46:23;100225.00;;;16.70;91.72
41712;BME280;27399;51.516;13.670;2022-10-16T00:49:15;100232.91;;;16.50;91.82
41712;BME280;27399;51.516;13.670;2022-10-16T00:51:45;100236.19;;;16.58;91.66
41712;BME280;27399;51.516;13.670;2022-10-16T00:54:14;100219.19;;;16.57;91.42
41712;BME280;27399;51.516;13.670;2022-10-16T00:56:41;100219.09;;;16.61;92.47
41712;BME280;27399;51.516;13.670;2022-10-16T00:59:14;100221.06;;;16.55;92.99
41712;BME280;27399;51.516;13.670;2022-10-16T01:01:40;100224.22;;;16.67;92.55
41712;BME280;27399;51.516;13.670;2022-10-16T01:04:06;100228.19;;;16.56;92.39
41712;BME280;27399;51.516;13.670;2022-10-16T01:09:23;100236.38;;;16.53;91.75
41712;BME280;27399;51.516;13.670;2022-10-16T01:12:15;100225.88;;;16.46;91.77
41712;BME280;27399;51.516;13.670;2022-10-16T01:15:41;100238.41;;;16.47;91.73
41712;BME280;27399;51.516;13.670;2022-10-16T01:18:10;100234.91;;;16.45;91.99
41712;BME280;27399;51.516;13.670;2022-10-16T01:20:46;100234.94;;;16.43;92.29
41712;BME280;27399;51.516;13.670;2022-10-16T01:23:32;100239.66;;;16.62;93.00
41712;BME280;27399;51.516;13.670;2022-10-16T01:28:36;100234.44;;;16.82;92.22
41712;BME280;27399;51.516;13.670;2022-10-16T01:31:04;100238.06;;;16.81;92.74
41712;BME280;27399;51.516;13.670;2022-10-16T01:33:35;100240.75;;;16.81;93.36
41712;BME280;27399;51.516;13.670;2022-10-16T01:36:18;100241.53;;;16.85;92.94
41712;BME280;27399;51.516;13.670;2022-10-16T01:38:49;100250.69;;;17.04;92.39
41712;BME280;27399;51.516;13.670;2022-10-16T01:41:33;100252.97;;;17.15;91.85
41712;BME280;27399;51.516;13.670;2022-10-16T01:46:30;100238.25;;;17.24;91.42
41712;BME280;27399;51.516;13.670;2022-10-16T01:48:57;100248.84;;;17.29;90.96
41712;BME280;27399;51.516;13.670;2022-10-16T01:51:25;100243.34;;;17.32;91.19
41712;BME280;27399;51.516;13.670;2022-10-16T01:53:55;100243.34;;;17.32;91.27
41712;BME280;27399;51.516;13.670;2022-10-16T01:56:23;100240.19;;;17.44;90.49
41712;BME280;27399;51.516;13.670;2022-10-16T01:58:56;100242.53;;;17.30;90.83
41712;BME280;27399;51.516;13.670;2022-10-16T02:01:26;100253.88;;;17.38;91.23
41712;BME280;27399;51.516;13.670;2022-10-16T02:03:56;100254.44;;;17.46;90.85
41712;BME280;27399;51.516;13.670;2022-10-16T02:06:23;100256.84;;;17.54;90.46
41712;BME280;27399;51.516;13.670;2022-10-16T02:08:50;100251.41;;;17.56;90.06
41712;BME280;27399;51.516;13.670;2022-10-16T02:11:15;100259.69;;;17.51;89.78
41712;BME280;27399;51.516;13.670;2022-10-16T02:13:54;100263.91;;;17.57;90.20
41712;BME280;27399;51.516;13.670;2022-10-16T02:16:20;100262.19;;;17.56;90.13
41712;BME280;27399;51.516;13.670;2022-10-16T02:18:46;100259.31;;;17.60;89.79
41712;BME280;27399;51.516;13.670;2022-10-16T02:26:51;100245.00;;;17.58;90.53
41712;BME280;27399;51.516;13.670;2022-10-16T02:29:22;100262.00;;;17.60;90.44
41712;BME280;27399;51.516;13.670;2022-10-16T02:31:54;100262.91;;;17.37;91.28
41712;BME280;27399;51.516;13.670;2022-10-16T02:34:23;100270.59;;;17.48;90.75
41712;BME280;27399;51.516;13.670;2022-10-16T02:36:51;100270.47;;;17.51;90.58
41712;BME280;27399;51.516;13.670;2022-10-16T02:39:19;100265.22;;;17.46;90.75
41712;BME280;27399;51.516;13.670;2022-10-16T02:41:45;100267.00;;;17.47;91.04
41712;BME280;27399;51.516;13.670;2022-10-16T02:44:11;100266.31;;;17.64;90.41
41712;BME280;27399;51.516;13.670;2022-10-16T02:46:37;100272.59;;;17.65;90.90
41712;BME280;27399;51.516;13.670;2022-10-16T02:49:02;100260.81;;;17.68;90.26
41712;BME280;27399;51.516;13.670;2022-10-16T02:51:28;100266.31;;;17.42;91.46
41712;BME280;27399;51.516;13.670;2022-10-16T02:53:54;100261.81;;;17.65;90.75
41712;BME280;27399;51.516;13.670;2022-10-16T02:56:19;100269.09;;;17.63;90.39
41712;BME280;27399;51.516;13.670;2022-10-16T02:58:45;100270.47;;;17.73;89.93
41712;BME280;27399;51.516;13.670;2022-10-16T03:01:10;100274.38;;;17.66;90.62
41712;BME280;27399;51.516;13.670;2022-10-16T03:03:38;100280.34;;;17.50;90.83
41712;BME280;27399;51.516;13.670;2022-10-16T03:06:04;100270.22;;;17.33;90.79
41712;BME280;27399;51.516;13.670;2022-10-16T03:08:31;100281.00;;;17.33;91.22
41712;BME280;27399;51.516;13.670;2022-10-16T03:10:56;100274.94;;;17.28;91.59
41712;BME280;27399;51.516;13.670;2022-10-16T03:13:22;100281.19;;;17.29;91.54
41712;BME280;27399;51.516;13.670;2022-10-16T03:15:47;100281.09;;;17.08;91.98
41712;BME280;27399;51.516;13.670;2022-10-16T03:18:13;100280.31;;;17.04;92.87
41712;BME280;27399;51.516;13.670;2022-10-16T03:20:39;100276.16;;;16.96;93.13
41712;BME280;27399;51.516;13.670;2022-10-16T03:23:04;100284.63;;;16.85;93.67
41712;BME280;27399;51.516;13.670;2022-10-16T03:25:30;100283.44;;;16.92;93.08
41712;BME280;27399;51.516;13.670;2022-10-16T03:27:56;100285.16;;;16.95;92.86
41712;BME280;27399;51.516;13.670;2022-10-16T03:30:21;100290.50;;;16.71;93.56
41712;BME280;27399;51.516;13.670;2022-10-16T03:32:47;100288.63;;;16.73;93.50
41712;BME280;27399;51.516;13.670;2022-10-16T03:35:12;100293.50;;;16.62;94.36
41712;BME280;27399;51.516;13.670;2022-10-16T03:37:38;100299.63;;;16.67;93.61
41712;BME280;27399;51.516;13.670;2022-10-16T03:40:04;100310.38;;;16.67;92.99
41712;BME280;27399;51.516;13.670;2022-10-16T03:42:30;100309.81;;;16.57;93.00
41712;BME280;27399;51.516;13.670;2022-10-16T03:44:56;100318.53;;;16.65;92.41
41712;BME280;27399;51.516;13.670;2022-10-16T03:47:22;100315.16;;;16.58;92.66
41712;BME280;27399;51.516;13.670;2022-10-16T03:49:49;100329.06;;;16.46;93.33
41712;BME280;27399;51.516;13.670;2022-10-16T03:52:15;100315.19;;;16.32;93.91
41712;BME280;27399;51.516;13.670;2022-10-16T03:54:40;100313.22;;;16.37;94.06
41712;BME280;27399;51.516;13.670;2022-10-16T03:57:06;100316.06;;;16.32;94.73
41712;BME280;27399;51.516;13.670;2022-10-16T03:59:32;100316.25;;;16.26;94.74
41712;BME280;27399;51.516;13.670;2022-10-16T04:01:57;100325.94;;;16.32;94.82
41712;BME280;27399;51.516;13.670;2022-10-16T04:04:23;100326.25;;;16.22;95.44
41712;BME280;27399;51.516;13.670;2022-10-16T04:06:50;100321.66;;;16.26;95.02
41712;BME280;27399;51.516;13.670;2022-10-16T04:09:15;100324.09;;;16.34;94.40
41712;BME280;27399;51.516;13.670;2022-10-16T04:11:41;100336.94;;;16.25;94.74
41712;BME280;27399;51.516;13.670;2022-10-16T04:14:07;100333.19;;;16.30;94.70
41712;BME280;27399;51.516;13.670;2022-10-16T04:16:32;100337.53;;;16.34;94.15
41712;BME280;27399;51.516;13.670;2022-10-16T04:18:58;100342.50;;;16.19;93.91
41712;BME280;27399;51.516;13.670;2022-10-16T04:21:23;100345.16;;;16.21;94.24
41712;BME280;27399;51.516;13.670;2022-10-16T04:23:49;100349.53;;;16.23;93.55
41712;BME280;27399;51.516;13.670;2022-10-16T04:26:15;100346.84;;;16.23;93.43
41712;BME280;27399;51.516;13.670;2022-10-16T04:28:41;100345.34;;;16.15;93.83
41712;BME280;27399;51.516;13.670;2022-10-16T04:31:07;100325.09;;;16.03;94.57
41712;BME280;27399;51.516;13.670;2022-10-16T04:33:33;100327.59;;;16.09;95.17
41712;BME280;27399;51.516;13.670;2022-10-16T04:36:02;100324.09;;;16.07;94.43
41712;BME280;27399;51.516;13.670;2022-10-16T04:38:28;100341.34;;;16.00;95.29
41712;BME280;27399;51.516;13.670;2022-10-16T04:40:54;100335.97;;;16.00;95.65
41712;BME280;27399;51.516;13.670;2022-10-16T04:43:20;100340.00;;;15.86;96.42
41712;BME280;27399;51.516;13.670;2022-10-16T04:45:46;100334.19;;;15.99;95.69
41712;BME280;27399;51.516;13.670;2022-10-16T04:48:12;100350.34;;;15.99;95.70
41712;BME280;27399;51.516;13.670;2022-10-16T04:50:37;100349.38;;;16.01;95.03
41712;BME280;27399;51.516;13.670;2022-10-16T04:53:03;100352.84;;;16.05;95.22
41712;BME280;27399;51.516;13.670;2022-10-16T04:55:29;100351.91;;;16.06;94.62
41712;BME280;27399;51.516;13.670;2022-10-16T04:57:54;100343.22;;;15.98;94.73
41712;BME280;27399;51.516;13.670;2022-10-16T05:00:20;100349.53;;;15.97;95.06
41712;BME280;27399;51.516;13.670;2022-10-16T05:02:47;100342.31;;;15.97;95.20
41712;BME280;27399;51.516;13.670;2022-10-16T05:05:14;100351.31;;;15.96;95.02
41712;BME280;27399;51.516;13.670;2022-10-16T05:07:40;100348.59;;;15.98;94.59
41712;BME280;27399;51.516;13.670;2022-10-16T05:10:06;100350.09;;;16.06;94.76
41712;BME280;27399;51.516;13.670;2022-10-16T05:12:32;100351.91;;;16.06;95.71
41712;BME280;27399;51.516;13.670;2022-10-16T05:14:57;100364.53;;;16.04;95.00
41712;BME280;27399;51.516;13.670;2022-10-16T05:17:26;100371.13;;;16.22;94.70
41712;BME280;27399;51.516;13.670;2022-10-16T05:19:52;100364.75;;;15.98;95.11
41712;BME280;27399;51.516;13.670;2022-10-16T05:22:17;100357.19;;;16.09;94.45
41712;BME280;27399;51.516;13.670;2022-10-16T05:24:43;100358.31;;;16.02;94.84
41712;BME280;27399;51.516;13.670;2022-10-16T05:27:09;100366.22;;;16.08;94.49
41712;BME280;27399;51.516;13.670;2022-10-16T05:29:36;100372.38;;;16.10;93.92
41712;BME280;27399;51.516;13.670;2022-10-16T05:32:02;100381.44;;;16.07;93.82
41712;BME280;27399;51.516;13.670;2022-10-16T05:34:28;100373.44;;;16.06;93.38
41712;BME280;27399;51.516;13.670;2022-10-16T05:36:53;100375.50;;;15.98;93.37
41712;BME280;27399;51.516;13.670;2022-10-16T05:39:19;100382.47;;;16.03;93.55
41712;BME280;27399;51.516;13.670;2022-10-16T05:41:45;100380.97;;;15.94;93.98
41712;BME280;27399;51.516;13.670;2022-10-16T05:44:10;100370.13;;;15.98;93.36
41712;BME280;27399;51.516;13.670;2022-10-16T05:46:36;100380.81;;;15.99;93.13
41712;BME280;27399;51.516;13.670;2022-10-16T05:49:02;100384.59;;;15.93;92.92
41712;BME280;27399;51.516;13.670;2022-10-16T05:51:28;100388.75;;;16.04;93.14
41712;BME280;27399;51.516;13.670;2022-10-16T05:53:53;100390.66;;;16.00;93.01
41712;BME280;27399;51.516;13.670;2022-10-16T05:56:19;100398.22;;;15.87;93.82
41712;BME280;27399;51.516;13.670;2022-10-16T05:58:45;100407.03;;;15.92;93.54
41712;BME280;27399;51.516;13.670;2022-10-16T06:01:13;100397.25;;;15.90;93.70
41712;BME280;27399;51.516;13.670;2022-10-16T06:03:39;100409.13;;;15.81;94.48
41712;BME280;27399;51.516;13.670;2022-10-16T06:06:14;100400.09;;;15.85;94.69
41712;BME280;27399;51.516;13.670;2022-10-16T06:08:41;100407.09;;;15.89;94.88
41712;BME280;27399;51.516;13.670;2022-10-16T06:11:10;100398.44;;;15.78;95.21
41712;BME280;27399;51.516;13.670;2022-10-16T06:13:37;100410.94;;;15.80;95.71
41712;BME280;27399;51.516;13.670;2022-10-16T06:16:04;100411.56;;;15.90;95.22
41712;BME280;27399;51.516;13.670;2022-10-16T06:18:30;100415.16;;;15.89;94.90
41712;BME280;27399;51.516;13.670;2022-10-16T06:20:56;100427.69;;;15.90;95.05
41712;BME280;27399;51.516;13.670;2022-10-16T06:23:23;100430.25;;;15.95;95.11
41712;BME280;27399;51.516;13.670;2022-10-16T06:25:49;100423.31;;;15.88;95.06
41712;BME280;27399;51.516;13.670;2022-10-16T06:28:15;100425.69;;;15.97;94.52
41712;BME280;27399;51.516;13.670;2022-10-16T06:30:41;100424.63;;;16.03;94.75
41712;BME280;27399;51.516;13.670;2022-10-16T06:33:10;100422.03;;;16.00;94.32
41712;BME280;27399;51.516;13.670;2022-10-16T06:35:36;100421.53;;;15.87;94.69
41712;BME280;27399;51.516;13.670;2022-10-16T06:38:02;100425.19;;;15.83;96.03
41712;BME280;27399;51.516;13.670;2022-10-16T06:40:27;100433.63;;;16.02;95.41
41712;BME280;27399;51.516;13.670;2022-10-16T06:42:55;100429.09;;;16.04;95.23
41712;BME280;27399;51.516;13.670;2022-10-16T06:45:21;100436.38;;;16.00;95.36
41712;BME280;27399;51.516;13.670;2022-10-16T06:47:47;100437.16;;;16.04;95.56
41712;BME280;27399;51.516;13.670;2022-10-16T06:50:12;100436.09;;;16.09;95.66
41712;BME280;27399;51.516;13.670;2022-10-16T06:52:38;100445.53;;;16.23;95.67
41712;BME280;27399;51.516;13.670;2022-10-16T06:55:04;100448.88;;;16.31;95.50
41712;BME280;27399;51.516;13.670;2022-10-16T06:57:31;100459.53;;;16.34;95.35
41712;BME280;27399;51.516;13.670;2022-10-16T06:59:56;100447.16;;;16.29;96.55
41712;BME280;27399;51.516;13.670;2022-10-16T07:02:22;100457.41;;;16.44;96.78
41712;BME280;27399;51.516;13.670;2022-10-16T07:04:48;100460.03;;;16.47;96.99
41712;BME280;27399;51.516;13.670;2022-10-16T07:07:13;100463.09;;;16.63;96.95
41712;BME280;27399;51.516;13.670;2022-10-16T07:09:40;100457.91;;;16.84;94.55
41712;BME280;27399;51.516;13.670;2022-10-16T07:12:05;100462.22;;;16.89;96.32
41712;BME280;27399;51.516;13.670;2022-10-16T07:14:31;100467.09;;;17.05;95.59
41712;BME280;27399;51.516;13.670;2022-10-16T07:16:57;100470.19;;;17.19;94.33
41712;BME280;27399;51.516;13.670;2022-10-16T07:19:22;100469.91;;;17.27;95.47
41712;BME280;27399;51.516;13.670;2022-10-16T07:21:48;100469.41;;;17.41;94.98
41712;BME280;27399;51.516;13.670;2022-10-16T07:24:15;100466.97;;;17.59;94.10
41712;BME280;27399;51.516;13.670;2022-10-16T07:26:43;100471.91;;;17.71;93.35
41712;BME280;27399;51.516;13.670;2022-10-16T07:29:17;100477.09;;;17.77;93.17
41712;BME280;27399;51.516;13.670;2022-10-16T07:31:43;100491.75;;;17.94;92.66
41712;BME280;27399;51.516;13.670;2022-10-16T07:34:11;100491.81;;;17.92;92.41
41712;BME280;27399;51.516;13.670;2022-10-16T07:36:36;100493.78;;;18.12;91.67
41712;BME280;27399;51.516;13.670;2022-10-16T07:39:02;100491.72;;;18.19;91.73
41712;BME280;27399;51.516;13.670;2022-10-16T07:41:28;100481.19;;;18.13;91.54
41712;BME280;27399;51.516;13.670;2022-10-16T07:43:54;100482.31;;;18.30;90.78
41712;BME280;27399;51.516;13.670;2022-10-16T07:46:24;100492.28;;;18.27;90.80
41712;BME280;27399;51.516;13.670;2022-10-16T07:48:52;100490.13;;;18.37;90.36
41712;BME280;27399;51.516;13.670;2022-10-16T07:51:20;100495.59;;;18.58;90.35
41712;BME280;27399;51.516;13.670;2022-10-16T07:53:47;100495.66;;;18.56;89.71
41712;BME280;27399;51.516;13.670;2022-10-16T07:56:13;100499.75;;;18.67;89.59
41712;BME280;27399;51.516;13.670;2022-10-16T07:58:39;100494.53;;;18.62;89.17
41712;BME280;27399;51.516;13.670;2022-10-16T08:01:07;100464.56;;;18.46;89.21
41712;BME280;27399;51.516;13.670;2022-10-16T08:03:33;100493.31;;;18.69;88.68
41712;BME280;27399;51.516;13.670;2022-10-16T08:05:59;100510.28;;;18.73;88.38
41712;BME280;27399;51.516;13.670;2022-10-16T08:08:26;100505.63;;;18.77;88.63
41712;BME280;27399;51.516;13.670;2022-10-16T08:10:52;100495.00;;;18.94;88.33
41712;BME280;27399;51.516;13.670;2022-10-16T08:13:18;100484.25;;;18.93;87.82
41712;BME280;27399;51.516;13.670;2022-10-16T08:15:44;100497.91;;;19.12;87.53
41712;BME280;27399;51.516;13.670;2022-10-16T08:18:11;100488.78;;;19.14;87.28
41712;BME280;27399;51.516;13.670;2022-10-16T08:20:38;100490.41;;;19.18;87.22
41712;BME280;27399;51.516;13.670;2022-10-16T08:23:04;100512.34;;;19.11;86.90
41712;BME280;27399;51.516;13.670;2022-10-16T08:25:30;100517.44;;;19.18;86.31
41712;BME280;27399;51.516;13.670;2022-10-16T08:27:55;100513.56;;;19.03;86.16
41712;BME280;27399;51.516;13.670;2022-10-16T08:30:23;100506.00;;;19.12;86.38
41712;BME280;27399;51.516;13.670;2022-10-16T08:32:49;100495.75;;;19.41;86.00
41712;BME280;27399;51.516;13.670;2022-10-16T08:35:15;100503.66;;;19.25;86.84
41712;BME280;27399;51.516;13.670;2022-10-16T08:37:41;100519.47;;;19.34;87.36
41712;BME280;27399;51.516;13.670;2022-10-16T08:40:22;100538.19;;;19.39;88.54
41712;BME280;27399;51.516;13.670;2022-10-16T08:51:09;100559.69;;;19.21;88.85
41712;BME280;27399;51.516;13.670;2022-10-16T08:53:44;100563.59;;;19.14;89.41
41712;BME280;27399;51.516;13.670;2022-10-16T08:56:11;100545.22;;;19.22;88.74
41712;BME280;27399;51.516;13.670;2022-10-16T08:58:37;100556.28;;;19.16;89.67
41712;BME280;27399;51.516;13.670;2022-10-16T09:01:04;100560.91;;;19.34;89.31
41712;BME280;27399;51.516;13.670;2022-10-16T09:15:03;100573.06;;;19.88;87.79
41712;BME280;27399;51.516;13.670;2022-10-16T09:22:27;100567.16;;;19.78;86.08
41712;BME280;27399;51.516;13.670;2022-10-16T09:24:59;100566.28;;;19.98;86.13
41712;BME280;27399;51.516;13.670;2022-10-16T09:27:26;100568.28;;;20.13;84.89
41712;BME280;27399;51.516;13.670;2022-10-16T09:29:52;100568.28;;;20.33;84.86
41712;BME280;27399;51.516;13.670;2022-10-16T09:32:19;100572.47;;;20.21;84.76
41712;BME280;27399;51.516;13.670;2022-10-16T09:34:52;100574.38;;;20.38;84.96
41712;BME280;27399;51.516;13.670;2022-10-16T09:37:20;100578.72;;;20.42;84.26
41712;BME280;27399;51.516;13.670;2022-10-16T09:39:52;100587.34;;;20.50;83.89
41712;BME280;27399;51.516;13.670;2022-10-16T09:42:23;100591.28;;;20.62;82.87
41712;BME280;27399;51.516;13.670;2022-10-16T09:44:52;100593.88;;;20.65;82.35
41712;BME280;27399;51.516;13.670;2022-10-16T09:47:29;100588.75;;;20.40;82.60
41712;BME280;27399;51.516;13.670;2022-10-16T09:50:00;100589.97;;;20.52;83.14
41712;BME280;27399;51.516;13.670;2022-10-16T09:52:32;100594.44;;;20.72;82.69
41712;BME280;27399;51.516;13.670;2022-10-16T09:55:09;100607.06;;;20.73;82.42
41712;BME280;27399;51.516;13.670;2022-10-16T09:57:51;100608.66;;;20.96;82.28
41712;BME280;27399;51.516;13.670;2022-10-16T10:00:17;100618.91;;;21.09;81.22
41712;BME280;27399;51.516;13.670;2022-10-16T10:02:44;100614.59;;;20.85;81.41
41712;BME280;27399;51.516;13.670;2022-10-16T10:05:26;100602.53;;;20.93;80.95
41712;BME280;27399;51.516;13.670;2022-10-16T10:08:06;100585.19;;;20.78;81.34
41712;BME280;27399;51.516;13.670;2022-10-16T10:10:38;100594.75;;;20.85;81.22
41712;BME280;27399;51.516;13.670;2022-10-16T10:13:26;100591.31;;;21.00;81.68
41712;BME280;27399;51.516;13.670;2022-10-16T10:15:53;100596.31;;;21.08;81.32
41712;BME280;27399;51.516;13.670;2022-10-16T10:18:20;100602.22;;;20.99;81.08
41712;BME280;27399;51.516;13.670;2022-10-16T10:20:59;100604.13;;;20.97;81.15
41712;BME280;27399;51.516;13.670;2022-10-16T10:23:26;100604.97;;;21.16;81.38
41712;BME280;27399;51.516;13.670;2022-10-16T10:31:20;100614.34;;;21.09;81.46
41712;BME280;27399;51.516;13.670;2022-10-16T10:36:40;100618.91;;;21.09;81.60
41712;BME280;27399;51.516;13.670;2022-10-16T10:47:52;100624.09;;;21.13;81.63
41712;BME280;27399;51.516;13.670;2022-10-16T10:56:15;100619.63;;;21.12;82.27
41712;BME280;27399;51.516;13.670;2022-10-16T11:01:39;100619.44;;;21.34;82.72
41712;BME280;27399;51.516;13.670;2022-10-16T11:04:57;100617.66;;;21.33;82.33
41712;BME280;27399;51.516;13.670;2022-10-16T11:07:05;100616.66;;;21.36;82.31
41712;BME280;27399;51.516;13.670;2022-10-16T11:09:36;100628.59;;;21.32;81.60
41712;BME280;27399;51.516;13.670;2022-10-16T11:12:22;100626.47;;;21.39;81.71
41712;BME280;27399;51.516;13.670;2022-10-16T11:15:05;100629.91;;;21.42;80.94
41712;BME280;27399;51.516;13.670;2022-10-16T11:17:42;100636.69;;;21.51;80.94
41712;BME280;27399;51.516;13.670;2022-10-16T11:20:54;100625.09;;;21.30;80.88
41712;BME280;27399;51.516;13.670;2022-10-16T11:26:21;100622.94;;;21.19;80.62
41712;BME280;27399;51.516;13.670;2022-10-16T11:28:50;100620.94;;;21.40;81.13
41712;BME280;27399;51.516;13.670;2022-10-16T11:31:39;100613.22;;;21.50;79.74
41712;BME280;27399;51.516;13.670;2022-10-16T11:34:41;100621.75;;;21.25;80.65
41712;BME280;27399;51.516;13.670;2022-10-16T11:37:20;100633.56;;;21.41;80.02
41712;BME280;27399;51.516;13.670;2022-10-16T11:39:50;100602.84;;;21.41;80.43
41712;BME280;27399;51.516;13.670;2022-10-16T11:42:30;100637.81;;;21.47;81.80
41712;BME280;27399;51.516;13.670;2022-10-16T11:47:40;100642.59;;;21.42;81.20
41712;BME280;27399;51.516;13.670;2022-10-16T11:50:28;100642.84;;;21.37;79.98
41712;BME280;27399;51.516;13.670;2022-10-16T11:55:48;100636.31;;;21.59;81.76
41712;BME280;27399;51.516;13.670;2022-10-16T12:03:40;100637.56;;;21.34;80.63
41712;BME280;27399;51.516;13.670;2022-10-16T12:06:23;100641.56;;;21.44;81.33
41712;BME280;27399;51.516;13.670;2022-10-16T12:08:52;100636.13;;;21.44;80.72
41712;BME280;27399;51.516;13.670;2022-10-16T12:16:37;100645.47;;;21.39;80.30
41712;BME280;27399;51.516;13.670;2022-10-16T12:19:17;100639.97;;;21.58;80.11
41712;BME280;27399;51.516;13.670;2022-10-16T12:21:43;100649.88;;;21.59;80.48
41712;BME280;27399;51.516;13.670;2022-10-16T12:24:31;100651.59;;;21.42;79.54
41712;BME280;27399;51.516;13.670;2022-10-16T12:26:57;100649.31;;;21.52;80.84
41712;BME280;27399;51.516;13.670;2022-10-16T12:31:57;100658.69;;;21.64;80.56
41712;BME280;27399;51.516;13.670;2022-10-16T12:34:36;100654.66;;;21.54;79.18
41712;BME280;27399;51.516;13.670;2022-10-16T12:37:18;100655.81;;;21.67;78.60
41712;BME280;27399;51.516;13.670;2022-10-16T12:39:47;100660.84;;;21.75;78.94
41712;BME280;27399;51.516;13.670;2022-10-16T12:44:55;100667.78;;;21.80;79.71
41712;BME280;27399;51.516;13.670;2022-10-16T12:49:55;100666.19;;;21.76;78.84
41712;BME280;27399;51.516;13.670;2022-10-16T12:54:59;100673.31;;;21.79;78.95
41712;BME280;27399;51.516;13.670;2022-10-16T12:57:37;100677.69;;;21.64;78.81
41712;BME280;27399;51.516;13.670;2022-10-16T13:00:26;100683.09;;;21.64;78.15
41712;BME280;27399;51.516;13.670;2022-10-16T13:09:02;100679.16;;;21.89;78.66
41712;BME280;27399;51.516;13.670;2022-10-16T13:11:54;100683.69;;;21.88;79.33
41712;BME280;27399;51.516;13.670;2022-10-16T13:14:36;100684.88;;;21.82;79.07
41712;BME280;27399;51.516;13.670;2022-10-16T13:20:21;100682.81;;;21.88;79.75
41712;BME280;27399;51.516;13.670;2022-10-16T13:28:09;100686.63;;;21.83;78.93
41712;BME280;27399;51.516;13.670;2022-10-16T13:30:41;100691.81;;;21.88;78.89
41712;BME280;27399;51.516;13.670;2022-10-16T13:33:34;100694.94;;;21.98;78.98
41712;BME280;27399;51.516;13.670;2022-10-16T13:36:01;100698.22;;;21.70;79.01
41712;BME280;27399;51.516;13.670;2022-10-16T13:38:30;100701.44;;;21.95;78.27
41712;BME280;27399;51.516;13.670;2022-10-16T13:46:04;100702.44;;;21.93;78.66
41712;BME280;27399;51.516;13.670;2022-10-16T13:48:32;100702.63;;;22.07;78.26
41712;BME280;27399;51.516;13.670;2022-10-16T13:51:11;100697.44;;;22.03;78.01
41712;BME280;27399;51.516;13.670;2022-10-16T13:53:37;100698.38;;;22.19;78.68
41712;BME280;27399;51.516;13.670;2022-10-16T13:56:06;100696.44;;;22.21;78.00
41712;BME280;27399;51.516;13.670;2022-10-16T13:58:32;100700.94;;;22.22;77.95
41712;BME280;27399;51.516;13.670;2022-10-16T14:05:00;100710.44;;;22.13;77.69
41712;BME280;27399;51.516;13.670;2022-10-16T14:07:32;100710.84;;;22.23;77.66
41712;BME280;27399;51.516;13.670;2022-10-16T14:10:18;100708.94;;;22.25;77.71
41712;BME280;27399;51.516;13.670;2022-10-16T14:12:45;100720.81;;;22.23;77.73
41712;BME280;27399;51.516;13.670;2022-10-16T14:15:19;100724.31;;;22.25;78.14
41712;BME280;27399;51.516;13.670;2022-10-16T14:17:48;100723.53;;;22.23;78.35
41712;BME280;27399;51.516;13.670;2022-10-16T14:20:15;100730.34;;;22.14;78.15
41712;BME280;27399;51.516;13.670;2022-10-16T14:22:42;100729.28;;;22.17;78.29
41712;BME280;27399;51.516;13.670;2022-10-16T14:27:55;100724.19;;;22.10;78.38
41712;BME280;27399;51.516;13.670;2022-10-16T14:30:22;100724.50;;;22.04;78.77
41712;BME280;27399;51.516;13.670;2022-10-16T14:32:56;100733.28;;;22.09;78.39
41712;BME280;27399;51.516;13.670;2022-10-16T14:35:30;100733.34;;;22.08;78.41
41712;BME280;27399;51.516;13.670;2022-10-16T14:37:58;100729.13;;;22.02;78.97
41712;BME280;27399;51.516;13.670;2022-10-16T14:40:29;100734.88;;;21.96;79.80
41712;BME280;27399;51.516;13.670;2022-10-16T14:42:56;100735.97;;;21.92;79.84
41712;BME280;27399;51.516;13.670;2022-10-16T14:45:24;100737.91;;;21.90;81.26
41712;BME280;27399;51.516;13.670;2022-10-16T14:47:57;100731.19;;;21.79;81.87
41712;BME280;27399;51.516;13.670;2022-10-16T14:50:23;100727.03;;;21.72;82.79
41712;BME280;27399;51.516;13.670;2022-10-16T14:52:48;100734.34;;;21.70;81.60